createdAt,value
2023-10-10T00:01:18.617Z,7.78
2023-10-10T00:03:46.600Z,11.07
2023-10-10T00:06:15.238Z,9.73
2023-10-10T00:08:42.605Z,8.68
2023-10-10T00:11:20.282Z,8.68
2023-10-10T00:13:47.977Z,9.52
2023-10-10T00:16:24.808Z,10.80
2023-10-10T00:18:51.575Z,12.00
2023-10-10T00:21:24.393Z,11.45
2023-10-10T00:23:51.681Z,10.85
2023-10-10T00:26:22.570Z,9.88
2023-10-10T00:28:56.990Z,9.82
2023-10-10T00:31:31.038Z,10.33
2023-10-10T00:33:58.226Z,9.00
2023-10-10T00:36:33.142Z,8.95
2023-10-10T00:39:19.973Z,9.18
2023-10-10T00:41:52.692Z,9.35
2023-10-10T00:44:20.458Z,9.33
2023-10-10T00:46:52.751Z,11.35
2023-10-10T00:49:24.750Z,9.05
2023-10-10T00:52:01.041Z,8.60
2023-10-10T00:54:28.114Z,9.90
2023-10-10T00:56:56.073Z,8.47
2023-10-10T00:59:29.590Z,9.30
2023-10-10T01:01:56.541Z,10.45
2023-10-10T01:04:36.635Z,9.73
2023-10-10T01:07:08.752Z,8.98
2023-10-10T01:09:40.671Z,8.33
2023-10-10T01:12:07.465Z,10.73
2023-10-10T01:14:34.218Z,11.40
2023-10-10T01:17:01.132Z,10.35
2023-10-10T01:19:31.193Z,8.95
2023-10-10T01:21:59.298Z,8.73
2023-10-10T01:24:26.794Z,8.48
2023-10-10T01:26:54.135Z,9.07
2023-10-10T01:29:27.057Z,7.57
2023-10-10T01:31:54.514Z,7.60
2023-10-10T01:34:40.912Z,10.07
2023-10-10T01:37:22.126Z,9.18
2023-10-10T01:39:55.591Z,11.27
2023-10-10T01:42:32.619Z,12.73
2023-10-10T01:45:04.064Z,9.80
2023-10-10T01:47:35.996Z,13.20
2023-10-10T01:50:09.266Z,8.68
2023-10-10T01:52:48.051Z,12.43
2023-10-10T01:55:18.132Z,8.27
2023-10-10T01:57:45.057Z,12.57
2023-10-10T02:00:28.238Z,11.03
2023-10-10T02:02:57.237Z,10.40
2023-10-10T02:05:54.600Z,8.60
2023-10-10T02:08:23.638Z,10.65
2023-10-10T02:10:51.459Z,9.05
2023-10-10T02:13:19.257Z,11.30
2023-10-10T02:15:46.026Z,9.65
2023-10-10T02:18:23.804Z,8.13
2023-10-10T02:20:50.594Z,7.82
2023-10-10T02:23:26.215Z,9.27
2023-10-10T02:25:54.774Z,6.93
2023-10-10T02:28:22.217Z,6.38
2023-10-10T02:30:53.414Z,10.48
2023-10-10T02:33:20.442Z,7.93
2023-10-10T02:35:55.178Z,7.63
2023-10-10T02:38:40.901Z,10.57
2023-10-10T02:41:28.083Z,7.97
2023-10-10T02:44:02.388Z,8.68
2023-10-10T02:46:37.557Z,6.28
2023-10-10T02:49:23.308Z,7.45
2023-10-10T02:51:51.023Z,6.60
2023-10-10T02:54:32.734Z,9.27
2023-10-10T02:57:21.751Z,7.22
2023-10-10T02:59:52.195Z,7.47
2023-10-10T03:02:20.731Z,7.18
2023-10-10T03:05:04.072Z,7.17
2023-10-10T03:07:31.404Z,8.93
2023-10-10T03:10:08.877Z,7.80
2023-10-10T03:12:39.215Z,11.00
2023-10-10T03:15:15.783Z,8.45
2023-10-10T03:17:51.072Z,7.57
2023-10-10T03:20:32.306Z,7.63
2023-10-10T03:23:08.857Z,7.72
2023-10-10T03:25:53.772Z,10.57
2023-10-10T03:28:33.669Z,5.95
2023-10-10T03:31:12.303Z,8.07
2023-10-10T03:33:46.517Z,6.55
2023-10-10T03:36:20.172Z,6.13
2023-10-10T03:38:51.286Z,6.53
2023-10-10T03:41:24.670Z,6.93
2023-10-10T03:44:11.221Z,7.37
2023-10-10T03:46:50.244Z,7.35
2023-10-10T03:49:36.549Z,7.75
2023-10-10T03:52:21.805Z,7.45
2023-10-10T03:55:07.259Z,8.52
2023-10-10T03:57:52.536Z,8.37
2023-10-10T04:00:37.876Z,7.38
2023-10-10T04:03:23.390Z,7.43
2023-10-10T04:06:08.832Z,7.40
2023-10-10T04:08:54.262Z,8.25
2023-10-10T04:11:39.587Z,8.00
2023-10-10T04:14:24.946Z,8.60
2023-10-10T04:17:09.877Z,7.55
2023-10-10T04:19:55.360Z,9.85
2023-10-10T04:22:40.796Z,7.70
2023-10-10T04:25:25.984Z,7.33
2023-10-10T04:28:11.429Z,6.55
2023-10-10T04:30:56.629Z,5.82
2023-10-10T04:33:43.592Z,10.30
2023-10-10T04:36:28.666Z,7.78
2023-10-10T04:39:13.555Z,6.23
2023-10-10T04:41:58.896Z,6.93
2023-10-10T04:44:43.914Z,6.18
2023-10-10T04:47:29.369Z,5.97
2023-10-10T04:50:14.557Z,9.30
2023-10-10T04:52:59.951Z,6.00
2023-10-10T04:55:45.073Z,7.43
2023-10-10T04:58:30.281Z,6.30
2023-10-10T05:01:15.576Z,7.72
2023-10-10T05:04:03.410Z,7.82
2023-10-10T05:06:48.975Z,7.37
2023-10-10T05:09:34.377Z,6.13
2023-10-10T05:12:19.398Z,7.63
2023-10-10T05:15:04.825Z,8.45
2023-10-10T05:17:49.771Z,6.65
2023-10-10T05:20:35.164Z,5.87
2023-10-10T05:23:20.565Z,7.40
2023-10-10T05:25:52.180Z,7.20
2023-10-10T05:28:20.991Z,6.13
2023-10-10T05:30:48.076Z,7.60
2023-10-10T05:33:15.173Z,7.87
2023-10-10T05:35:49.873Z,6.28
2023-10-10T05:38:21.248Z,6.53
2023-10-10T05:40:48.541Z,8.00
2023-10-10T05:43:18.922Z,5.60
2023-10-10T05:45:46.000Z,6.57
2023-10-10T05:48:13.476Z,6.78
2023-10-10T05:50:42.243Z,8.30
2023-10-10T05:53:09.307Z,8.15
2023-10-10T05:55:36.812Z,8.48
2023-10-10T05:58:03.717Z,9.70
2023-10-10T06:00:33.634Z,8.75
2023-10-10T06:03:01.196Z,9.02
2023-10-10T06:05:30.758Z,7.80
2023-10-10T06:07:59.903Z,8.18
2023-10-10T06:10:32.692Z,9.40
2023-10-10T06:12:59.923Z,9.65
2023-10-10T06:15:29.806Z,7.43
2023-10-10T06:17:58.902Z,8.13
2023-10-10T06:20:26.241Z,8.00
2023-10-10T06:22:56.620Z,10.00
2023-10-10T06:25:24.559Z,8.93
2023-10-10T06:27:57.407Z,9.98
2023-10-10T06:30:25.906Z,8.00
2023-10-10T06:32:53.140Z,9.63
2023-10-10T06:35:20.063Z,11.97
2023-10-10T06:37:52.893Z,10.77
2023-10-10T06:40:31.300Z,10.20
2023-10-10T06:43:00.921Z,11.98
2023-10-10T06:45:36.148Z,10.60
2023-10-10T06:48:02.968Z,10.50
2023-10-10T06:50:33.401Z,12.48
2023-10-10T06:53:01.838Z,11.93
2023-10-10T06:55:38.004Z,8.93
2023-10-10T06:58:06.674Z,10.05
2023-10-10T07:00:43.806Z,10.47
2023-10-10T07:03:11.345Z,11.80
2023-10-10T07:05:40.774Z,11.43
2023-10-10T07:08:26.401Z,13.45
2023-10-10T07:10:54.911Z,10.73
2023-10-10T07:13:22.232Z,13.87
2023-10-10T07:15:55.107Z,13.63
2023-10-10T07:18:25.073Z,14.52
2023-10-10T07:21:08.036Z,15.00
2023-10-10T07:23:39.279Z,12.82
2023-10-10T07:26:07.018Z,12.37
2023-10-10T07:28:54.767Z,13.00
2023-10-10T07:31:23.401Z,11.77
2023-10-10T07:34:05.456Z,9.82
2023-10-10T07:36:32.670Z,13.15
2023-10-10T07:39:25.342Z,10.97
2023-10-10T07:41:53.889Z,10.95
2023-10-10T07:44:23.954Z,12.52
2023-10-10T07:47:09.804Z,12.05
2023-10-10T07:49:36.720Z,11.77
2023-10-10T07:52:04.269Z,18.43
2023-10-10T07:54:40.219Z,13.60
2023-10-10T07:57:12.837Z,11.30
2023-10-10T07:59:39.810Z,9.63
2023-10-10T08:02:21.150Z,8.65
2023-10-10T08:04:50.939Z,16.60
2023-10-10T08:07:21.185Z,10.43
2023-10-10T08:09:48.102Z,12.65
2023-10-10T08:12:15.149Z,11.18
2023-10-10T08:14:42.491Z,10.07
2023-10-10T08:17:22.544Z,11.57
2023-10-10T08:19:54.979Z,10.30
2023-10-10T08:22:26.776Z,10.52
2023-10-10T08:24:53.571Z,11.60
2023-10-10T08:27:23.759Z,9.23
2023-10-10T08:29:51.739Z,10.87
2023-10-10T08:32:18.837Z,8.93
2023-10-10T08:34:45.720Z,10.38
2023-10-10T08:37:12.527Z,9.82
2023-10-10T08:39:40.643Z,11.77
2023-10-10T08:42:12.214Z,14.77
2023-10-10T08:44:40.221Z,9.38
2023-10-10T08:47:07.889Z,12.20
2023-10-10T08:49:34.849Z,11.57
2023-10-10T08:52:04.273Z,10.73
2023-10-10T08:54:31.077Z,12.17
2023-10-10T08:57:01.478Z,12.27
2023-10-10T08:59:32.822Z,11.57
2023-10-10T09:02:06.635Z,11.85
2023-10-10T09:04:33.636Z,12.32
2023-10-10T09:07:01.712Z,14.27
2023-10-10T09:09:34.346Z,9.95
2023-10-10T09:12:04.336Z,12.98
2023-10-10T09:14:53.000Z,10.95
2023-10-10T09:17:30.252Z,12.07
2023-10-10T09:20:01.575Z,15.80
2023-10-10T09:22:44.296Z,11.60
2023-10-10T09:25:27.831Z,11.65
2023-10-10T09:28:01.638Z,16.23
2023-10-10T09:30:36.014Z,17.52
2023-10-10T09:33:30.152Z,12.30
2023-10-10T09:36:09.877Z,12.70
2023-10-10T09:38:38.164Z,15.35
2023-10-10T09:41:24.066Z,12.70
2023-10-10T09:44:16.434Z,13.60
2023-10-10T09:47:09.634Z,14.13
2023-10-10T09:49:53.473Z,15.00
2023-10-10T09:52:40.195Z,15.05
2023-10-10T09:55:14.440Z,14.95
2023-10-10T09:57:45.887Z,11.68
2023-10-10T10:00:27.403Z,13.63
2023-10-10T10:02:58.753Z,14.43
2023-10-10T10:05:29.884Z,15.80
2023-10-10T10:08:01.713Z,16.27
2023-10-10T10:10:53.537Z,11.82
2023-10-10T10:13:38.574Z,13.40
2023-10-10T10:16:21.159Z,16.70
2023-10-10T10:18:48.634Z,12.25
2023-10-10T10:21:20.380Z,13.43
2023-10-10T10:23:57.797Z,13.48
2023-10-10T10:26:33.769Z,13.47
2023-10-10T10:29:16.176Z,14.73
2023-10-10T10:31:58.407Z,10.93
2023-10-10T10:34:36.602Z,14.93
2023-10-10T10:37:03.716Z,13.65
2023-10-10T10:39:35.871Z,12.87
2023-10-10T10:42:16.936Z,11.02
2023-10-10T10:44:59.873Z,13.98
2023-10-10T10:47:56.080Z,15.55
2023-10-10T10:50:42.072Z,12.73
2023-10-10T10:53:21.725Z,10.97
2023-10-10T10:56:07.489Z,15.05
2023-10-10T10:58:49.017Z,14.15
2023-10-10T11:01:18.612Z,22.13
2023-10-10T11:03:45.514Z,14.52
2023-10-10T11:06:15.842Z,13.80
2023-10-10T11:11:25.076Z,12.10
2023-10-10T11:13:52.952Z,14.27
2023-10-10T11:16:20.792Z,14.68
2023-10-10T11:18:58.282Z,17.50
2023-10-10T11:21:28.993Z,12.77
2023-10-10T11:23:58.784Z,12.02
2023-10-10T11:26:28.627Z,15.18
2023-10-10T11:29:00.438Z,17.35
2023-10-10T11:31:30.653Z,13.77
2023-10-10T11:34:11.693Z,13.13
2023-10-10T11:36:41.123Z,13.38
2023-10-10T11:39:32.655Z,14.27
2023-10-10T11:42:01.516Z,17.92
2023-10-10T11:44:28.584Z,17.90
2023-10-10T11:47:04.149Z,14.40
2023-10-10T11:49:32.700Z,16.95
2023-10-10T11:52:00.542Z,16.02
2023-10-10T11:54:29.032Z,14.25
2023-10-10T11:56:55.870Z,15.13
2023-10-10T11:59:23.612Z,15.65
2023-10-10T12:01:55.588Z,13.73
2023-10-10T12:04:32.100Z,14.07
2023-10-10T12:07:05.357Z,15.38
2023-10-10T12:09:33.180Z,13.30
2023-10-10T12:12:00.508Z,15.52
2023-10-10T12:14:30.471Z,13.23
2023-10-10T12:17:00.747Z,14.15
2023-10-10T12:19:29.353Z,14.15
2023-10-10T12:21:56.939Z,16.70
2023-10-10T12:24:24.635Z,16.10
2023-10-10T12:26:55.458Z,15.40
2023-10-10T12:29:25.683Z,16.63
2023-10-10T12:31:56.956Z,14.27
2023-10-10T12:34:24.754Z,13.10
2023-10-10T12:37:00.919Z,16.55
2023-10-10T12:39:28.961Z,19.40
2023-10-10T12:41:58.314Z,15.73
2023-10-10T12:44:25.239Z,15.88
2023-10-10T12:46:56.045Z,18.37
2023-10-10T12:49:29.841Z,13.13
2023-10-10T12:51:57.878Z,16.83
2023-10-10T12:54:28.741Z,16.20
2023-10-10T12:57:04.102Z,16.77
2023-10-10T12:59:34.704Z,14.27
2023-10-10T13:02:04.694Z,12.57
2023-10-10T13:04:33.650Z,15.40
2023-10-10T13:07:06.207Z,19.25
2023-10-10T13:09:33.246Z,15.60
2023-10-10T13:12:04.005Z,19.53
2023-10-10T13:14:34.021Z,16.42
2023-10-10T13:17:21.715Z,15.40
2023-10-10T13:19:50.123Z,14.38
2023-10-10T13:22:22.191Z,13.40
2023-10-10T13:24:52.729Z,15.00
2023-10-10T13:27:22.072Z,13.70
2023-10-10T13:29:49.034Z,16.67
2023-10-10T13:32:15.833Z,15.88
2023-10-10T13:34:42.552Z,17.60
2023-10-10T13:37:10.235Z,15.27
2023-10-10T13:39:56.801Z,15.65
2023-10-10T13:42:23.688Z,15.10
2023-10-10T13:44:50.604Z,13.52
2023-10-10T13:47:18.340Z,14.88
2023-10-10T13:49:59.643Z,14.57
2023-10-10T13:52:26.344Z,12.75
2023-10-10T13:54:53.394Z,17.38
2023-10-10T13:57:20.154Z,13.63
2023-10-10T13:59:50.418Z,19.42
2023-10-10T14:02:18.223Z,15.70
2023-10-10T14:04:49.873Z,21.77
2023-10-10T14:07:16.984Z,16.55
2023-10-10T14:10:02.267Z,11.95
2023-10-10T14:12:33.654Z,16.50
2023-10-10T14:15:02.686Z,14.60
2023-10-10T14:17:31.030Z,14.40
2023-10-10T14:19:59.731Z,15.50
2023-10-10T14:22:28.155Z,12.95
2023-10-10T14:25:01.625Z,15.50
2023-10-10T14:27:28.984Z,16.80
2023-10-10T14:29:58.762Z,18.58
2023-10-10T14:32:38.900Z,17.17
2023-10-10T14:35:06.802Z,17.65
2023-10-10T14:37:45.476Z,17.85
2023-10-10T14:40:20.206Z,16.43
2023-10-10T14:42:46.944Z,18.52
2023-10-10T14:45:14.227Z,14.00
2023-10-10T14:47:45.029Z,14.73
2023-10-10T14:50:14.213Z,15.88
2023-10-10T14:52:48.370Z,14.47
2023-10-10T14:55:28.983Z,17.42
2023-10-10T14:57:56.637Z,15.43
2023-10-10T15:00:24.936Z,17.83
2023-10-10T15:02:55.051Z,15.77
2023-10-10T15:05:24.818Z,13.33
2023-10-10T15:07:53.868Z,15.85
2023-10-10T15:10:24.767Z,15.15
2023-10-10T15:12:51.538Z,19.60
2023-10-10T15:15:18.311Z,15.48
2023-10-10T15:17:45.053Z,15.63
2023-10-10T15:20:15.164Z,15.60
2023-10-10T15:22:43.186Z,17.85
2023-10-10T15:25:12.034Z,18.55
2023-10-10T15:27:42.131Z,15.50
2023-10-10T15:30:10.017Z,17.10
2023-10-10T15:32:47.886Z,15.55
2023-10-10T15:35:16.665Z,17.35
2023-10-10T15:37:43.741Z,15.95
2023-10-10T15:40:14.615Z,18.25
2023-10-10T15:42:41.564Z,18.13
2023-10-10T15:45:08.703Z,17.90
2023-10-10T15:47:35.582Z,14.68
2023-10-10T15:50:02.414Z,18.40
2023-10-10T15:52:29.471Z,16.25
2023-10-10T15:54:56.118Z,17.97
2023-10-10T15:57:24.061Z,17.90
2023-10-10T15:59:50.774Z,20.60
2023-10-10T16:02:17.539Z,18.63
2023-10-10T16:04:46.132Z,15.35
2023-10-10T16:07:17.315Z,21.90
2023-10-10T16:09:44.353Z,17.50
2023-10-10T16:12:13.840Z,16.77
2023-10-10T16:14:41.137Z,20.33
2023-10-10T16:17:07.939Z,18.25
2023-10-10T16:19:37.320Z,15.63
2023-10-10T16:22:06.403Z,15.43
2023-10-10T16:24:33.695Z,19.35
2023-10-10T16:27:01.149Z,24.52
2023-10-10T16:29:34.685Z,17.55
2023-10-10T16:32:03.600Z,17.93
2023-10-10T16:34:33.469Z,23.98
2023-10-10T16:37:00.520Z,20.17
2023-10-10T16:39:27.279Z,23.02
2023-10-10T16:41:58.546Z,17.33
2023-10-10T16:44:26.203Z,20.53
2023-10-10T16:46:54.774Z,20.27
2023-10-10T16:49:24.063Z,19.33
2023-10-10T16:51:50.861Z,21.08
2023-10-10T16:54:20.005Z,22.48
2023-10-10T16:56:47.349Z,19.33
2023-10-10T16:59:16.025Z,20.30
2023-10-10T17:01:44.001Z,22.70
2023-10-10T17:04:11.569Z,21.50
2023-10-10T17:06:38.978Z,20.85
2023-10-10T17:09:06.254Z,20.27
2023-10-10T17:11:33.844Z,17.27
2023-10-10T17:14:04.622Z,26.58
2023-10-10T17:16:34.197Z,22.45
2023-10-10T17:21:32.827Z,24.97
2023-10-10T17:24:02.847Z,20.02
2023-10-10T17:26:31.569Z,20.75
2023-10-10T17:29:02.016Z,25.50
2023-10-10T17:31:29.741Z,18.75
2023-10-10T17:33:57.764Z,18.97
2023-10-10T17:36:27.623Z,18.05
2023-10-10T17:38:56.097Z,18.23
2023-10-10T17:41:25.201Z,19.10
2023-10-10T17:43:54.035Z,14.55
2023-10-10T17:46:22.888Z,18.70
2023-10-10T17:48:58.764Z,33.47
2023-10-10T17:51:29.249Z,61.60
2023-10-10T17:53:56.209Z,44.15
2023-10-10T17:56:25.765Z,34.38
2023-10-10T17:58:52.493Z,23.33
2023-10-10T18:01:22.170Z,20.45
2023-10-10T18:03:54.281Z,17.80
2023-10-10T18:06:22.241Z,17.48
2023-10-10T18:08:53.368Z,17.75
2023-10-10T18:11:20.150Z,17.50
2023-10-10T18:13:47.705Z,16.30
2023-10-10T18:16:15.103Z,20.55
2023-10-10T18:18:43.562Z,18.05
2023-10-10T18:21:13.869Z,18.40
2023-10-10T18:23:42.719Z,20.13
2023-10-10T18:26:21.519Z,17.63
2023-10-10T18:28:50.713Z,14.35
2023-10-10T18:31:22.535Z,22.65
2023-10-10T18:33:49.451Z,16.17
2023-10-10T18:36:16.328Z,16.53
2023-10-10T18:38:43.426Z,16.45
2023-10-10T18:41:10.849Z,17.35
2023-10-10T18:43:37.613Z,16.52
2023-10-10T18:46:06.806Z,15.80
2023-10-10T18:48:38.358Z,14.93
2023-10-10T18:51:05.532Z,15.80
2023-10-10T18:53:32.375Z,20.40
2023-10-10T18:55:59.771Z,19.73
2023-10-10T18:58:27.421Z,19.38
2023-10-10T19:00:56.250Z,19.27
2023-10-10T19:03:23.631Z,17.95
2023-10-10T19:05:53.680Z,21.30
2023-10-10T19:08:21.287Z,18.10
2023-10-10T19:10:54.091Z,17.48
2023-10-10T19:13:20.922Z,17.13
2023-10-10T19:15:50.180Z,21.77
2023-10-10T19:18:17.088Z,19.88
2023-10-10T19:20:47.817Z,18.70
2023-10-10T19:23:15.989Z,22.08
2023-10-10T19:25:49.053Z,17.60
2023-10-10T19:28:17.915Z,19.08
2023-10-10T19:30:45.176Z,17.50
2023-10-10T19:33:16.453Z,17.88
2023-10-10T19:35:46.810Z,19.38
2023-10-10T19:38:13.690Z,18.93
2023-10-10T19:40:44.634Z,19.13
2023-10-10T19:43:12.430Z,21.33
2023-10-10T19:45:39.413Z,18.55
2023-10-10T19:48:09.661Z,17.80
2023-10-10T19:50:43.918Z,21.53
2023-10-10T19:53:11.405Z,23.25
2023-10-10T19:55:42.431Z,22.42
2023-10-10T19:58:12.927Z,20.50
2023-10-10T20:00:42.809Z,19.38
2023-10-10T20:03:09.720Z,21.93
2023-10-10T20:05:39.869Z,22.10
2023-10-10T20:08:07.514Z,19.63
2023-10-10T20:10:34.329Z,20.65
2023-10-10T20:13:01.185Z,20.52
2023-10-10T20:15:28.614Z,20.30
2023-10-10T20:17:59.214Z,23.95
2023-10-10T20:20:27.201Z,23.98
2023-10-10T20:22:54.505Z,24.90
2023-10-10T20:25:21.117Z,22.17
2023-10-10T20:27:48.003Z,19.67
2023-10-10T20:30:16.039Z,22.83
2023-10-10T20:32:43.058Z,20.92
2023-10-10T20:35:18.446Z,21.48
2023-10-10T20:37:45.951Z,21.75
2023-10-10T20:40:17.918Z,24.60
2023-10-10T20:42:47.880Z,22.02
2023-10-10T20:45:17.459Z,20.00
2023-10-10T20:47:44.645Z,21.60
2023-10-10T20:50:15.504Z,21.95
2023-10-10T20:52:42.275Z,22.80
2023-10-10T20:55:11.905Z,24.00
2023-10-10T20:57:39.572Z,22.83
2023-10-10T21:00:07.294Z,20.70
2023-10-10T21:02:35.371Z,25.27
2023-10-10T21:05:03.304Z,23.00
2023-10-10T21:07:30.891Z,19.92
2023-10-10T21:09:57.652Z,21.98
2023-10-10T21:12:24.317Z,24.13
2023-10-10T21:14:54.118Z,25.40
2023-10-10T21:17:20.794Z,23.70
2023-10-10T21:19:48.454Z,29.08
2023-10-10T21:22:15.073Z,25.73
2023-10-10T21:24:41.684Z,20.83
2023-10-10T21:27:08.450Z,23.63
2023-10-10T21:29:35.231Z,21.10
2023-10-10T21:32:02.712Z,20.17
2023-10-10T21:34:29.518Z,23.83
2023-10-10T21:36:56.195Z,20.48
2023-10-10T21:39:22.970Z,18.70
2023-10-10T21:41:52.254Z,16.80
2023-10-10T21:44:19.245Z,19.45
2023-10-10T21:46:45.983Z,20.77
2023-10-10T21:49:15.454Z,17.67
2023-10-10T21:51:43.584Z,15.60
2023-10-10T21:54:11.518Z,20.23
2023-10-10T21:56:38.415Z,18.27
2023-10-10T21:59:05.518Z,15.52
2023-10-10T22:01:34.208Z,16.15
2023-10-10T22:04:01.188Z,20.10
2023-10-10T22:06:29.057Z,18.47
2023-10-10T22:08:55.803Z,16.75
2023-10-10T22:11:24.503Z,20.13
2023-10-10T22:13:51.831Z,16.08
2023-10-10T22:16:19.813Z,19.65
2023-10-10T22:18:49.232Z,19.63
2023-10-10T22:21:16.194Z,19.88
2023-10-10T22:23:43.732Z,20.58
2023-10-10T22:26:10.686Z,18.75
2023-10-10T22:28:37.470Z,19.95
2023-10-10T22:31:05.819Z,18.50
2023-10-10T22:33:32.686Z,17.67
2023-10-10T22:36:01.912Z,20.15
2023-10-10T22:38:28.741Z,21.33
2023-10-10T22:40:55.444Z,19.25
2023-10-10T22:43:22.575Z,19.13
2023-10-10T22:45:50.050Z,19.00
2023-10-10T22:48:16.854Z,19.45
2023-10-10T22:50:43.644Z,19.38
2023-10-10T22:53:17.098Z,18.70
2023-10-10T22:55:44.352Z,18.77
2023-10-10T22:58:11.021Z,17.13
2023-10-10T23:00:38.320Z,18.30
2023-10-10T23:03:12.006Z,20.30
2023-10-10T23:05:44.043Z,18.38
2023-10-10T23:08:12.029Z,18.67
2023-10-10T23:10:40.569Z,20.70
2023-10-10T23:13:07.877Z,18.33
2023-10-10T23:15:38.480Z,17.70
2023-10-10T23:18:06.069Z,18.55
2023-10-10T23:20:34.750Z,20.17
2023-10-10T23:23:05.745Z,21.63
2023-10-10T23:25:32.999Z,21.15
2023-10-10T23:27:59.952Z,18.45
2023-10-10T23:30:30.006Z,19.73
2023-10-10T23:32:57.761Z,17.07
2023-10-10T23:35:25.944Z,16.83
2023-10-10T23:37:58.360Z,19.38
2023-10-10T23:40:41.291Z,18.08
2023-10-10T23:43:09.704Z,17.70
2023-10-10T23:45:36.795Z,16.63
2023-10-10T23:48:03.787Z,18.85
2023-10-10T23:50:39.744Z,16.13
2023-10-10T23:53:08.406Z,18.50
2023-10-10T23:55:38.123Z,16.15
2023-10-10T23:58:09.001Z,15.30
